Time;durP1;ratioP1;P1;durP2;ratioP2;P2;SDS_P1;SDS_P2;PMS_P1;PMS_P2;Temp;Humidity;BMP_temperature;BMP_pressure;BME280_temperature;BME280_humidity;BME280_pressure;Samples;Min_cycle;Max_cycle;Signal;HPM_P1;HPM_P2
2024/01/08 00:04:44;;;;;;;2.58;1.85;;;;;;;-3.25;70.57;147854.28;13019824;22;20026;-83
2024/01/08 00:09:46;;;;;;;2.65;1.48;;;;;;;-3.46;71.95;147800.66;13072234;22;20023;-82
2024/01/08 00:14:49;;;;;;;2.55;1.73;;;;;;;-3.38;71.77;147821.09;13094136;22;20011;-78
2024/01/08 00:19:50;;;;;;;2.80;2.13;;;;;;;-3.41;71.75;147814.75;13081250;22;20335;-84
2024/01/08 00:24:52;;;;;;;2.25;2.03;;;;;;;-3.24;71.04;147856.81;13070640;22;20464;-83
2024/01/08 00:29:54;;;;;;;2.70;2.25;;;;;;;-3.37;71.74;147823.63;13071153;22;20019;-79
2024/01/08 00:34:55;;;;;;;2.13;1.85;;;;;;;-3.34;72.28;147831.31;13071480;22;20014;-81
2024/01/08 00:39:57;;;;;;;2.80;2.03;;;;;;;-3.16;72.02;147877.25;13069247;22;20019;-83
2024/01/08 00:44:59;;;;;;;2.58;1.95;;;;;;;-3.14;71.80;147882.38;13069925;22;20015;-82
2024/01/08 00:50:02;;;;;;;2.45;1.90;;;;;;;-3.32;72.66;147836.38;13069717;22;20019;-82
2024/01/08 00:55:05;;;;;;;3.47;2.00;;;;;;;-3.24;72.17;147855.56;13042591;22;20018;-83
2024/01/08 01:00:11;;;;;;;2.60;1.77;;;;;;;-3.33;73.33;147833.84;13041924;22;20023;-81
2024/01/08 01:05:12;;;;;;;3.17;2.08;;;;;;;-3.27;73.13;147847.94;13040874;22;20020;-83
2024/01/08 01:10:14;;;;;;;2.10;1.80;;;;;;;-3.13;72.24;147884.94;13042611;22;20361;-83
2024/01/08 01:15:16;;;;;;;2.72;2.03;;;;;;;-3.25;72.47;147853.00;13068883;22;20198;-82
2024/01/08 01:20:18;;;;;;;2.92;1.88;;;;;;;-3.28;73.23;147845.34;13070229;22;20019;-83
2024/01/08 01:25:20;;;;;;;2.63;1.88;;;;;;;-3.32;73.36;147837.72;13069311;22;20029;-82
2024/01/08 01:30:21;;;;;;;3.78;2.30;;;;;;;-3.30;72.94;147842.78;13069768;22;20026;-81
2024/01/08 01:35:23;;;;;;;3.78;2.67;;;;;;;-3.41;73.92;147814.75;13067938;22;20057;-81
2024/01/08 01:40:25;;;;;;;4.32;2.58;;;;;;;-3.41;71.50;147813.41;13066989;22;20019;-81
2024/01/08 01:45:27;;;;;;;3.20;2.38;;;;;;;-3.55;69.74;147780.25;13069878;22;20510;-83
2024/01/08 01:50:29;;;;;;;3.35;2.33;;;;;;;-3.52;68.63;147785.38;13069762;22;20042;-81
2024/01/08 01:55:31;;;;;;;3.10;2.45;;;;;;;-3.69;68.43;147744.53;13067114;22;20039;-84
2024/01/08 02:00:33;;;;;;;4.10;2.53;;;;;;;-3.73;69.87;147733.03;13070314;22;20015;-83
2024/01/08 02:05:35;;;;;;;3.72;2.47;;;;;;;-3.70;70.20;147741.97;13088660;22;20011;-79
2024/01/08 02:10:40;;;;;;;5.63;2.88;;;;;;;-3.86;71.92;147701.13;13098525;22;20030;-82
2024/01/08 02:15:41;;;;;;;5.60;3.72;;;;;;;-3.99;72.08;147667.97;13047765;22;20032;-83
2024/01/08 02:20:43;;;;;;;4.72;3.42;;;;;;;-4.07;72.27;147648.88;13048273;22;20095;-83
2024/01/08 02:25:45;;;;;;;7.15;3.70;;;;;;;-4.22;72.43;147611.84;13073761;22;20090;-81
2024/01/08 02:30:47;;;;;;;5.53;3.85;;;;;;;-4.37;72.39;147574.88;13046106;22;20132;-82
2024/01/08 02:35:49;;;;;;;7.82;4.88;;;;;;;-4.33;72.56;147583.81;13071186;22;20015;-81
2024/01/08 02:40:51;;;;;;;5.00;3.95;;;;;;;-4.50;71.29;147540.44;13071522;22;20019;-83
2024/01/08 02:45:53;;;;;;;5.78;4.13;;;;;;;-4.70;71.04;147490.69;13076422;22;20318;-83
2024/01/08 02:50:54;;;;;;;6.40;4.22;;;;;;;-4.88;70.78;147447.34;13075051;22;20015;-80
2024/01/08 02:55:56;;;;;;;3.80;3.47;;;;;;;-4.96;69.97;147425.69;13072866;22;20291;-82
2024/01/08 03:00:59;;;;;;;5.18;3.30;;;;;;;-4.95;69.89;147428.28;13071041;22;20034;-81
2024/01/08 03:06:01;;;;;;;8.52;3.70;;;;;;;-5.14;69.23;147381.06;13071842;22;20033;-81
2024/01/08 03:11:03;;;;;;;4.85;4.00;;;;;;;-5.13;69.94;147384.94;13069849;22;20441;-81
2024/01/08 03:16:05;;;;;;;4.72;4.10;;;;;;;-5.23;68.94;147359.41;13045405;22;20038;-81
2024/01/08 03:21:07;;;;;;;4.53;3.40;;;;;;;-5.39;69.05;147319.94;13042112;22;20027;-82
2024/01/08 03:26:09;;;;;;;5.82;4.57;;;;;;;-5.35;69.27;147328.88;13045531;22;20011;-82
2024/01/08 03:31:11;;;;;;;7.18;5.57;;;;;;;-5.48;69.59;147297.00;13085006;22;20015;-82
2024/01/08 03:36:12;;;;;;;5.93;4.00;;;;;;;-5.64;69.27;147256.22;13087198;22;20345;-82
2024/01/08 03:41:15;;;;;;;4.55;3.47;;;;;;;-5.70;69.56;147240.97;13061015;22;20019;-82
2024/01/08 03:46:17;;;;;;;5.57;3.80;;;;;;;-5.73;70.17;147233.31;13063279;22;20038;-82
2024/01/08 03:51:18;;;;;;;4.97;3.72;;;;;;;-5.61;69.72;147265.16;13086607;22;20353;-81
2024/01/08 03:56:20;;;;;;;5.05;3.83;;;;;;;-5.74;69.90;147232.03;13065797;22;20037;-82
2024/01/08 04:01:24;;;;;;;6.07;3.85;;;;;;;-5.91;70.08;147188.75;13058072;22;20019;-81
2024/01/08 04:06:26;;;;;;;6.03;3.53;;;;;;;-6.12;69.70;147137.84;13044226;22;20042;-81
2024/01/08 04:11:28;;;;;;;6.45;3.83;;;;;;;-6.42;69.54;147061.44;13071955;22;20038;-82
2024/01/08 04:16:31;;;;;;;5.75;3.60;;;;;;;-6.46;70.51;147051.25;13042420;22;20039;-83
2024/01/08 04:21:33;;;;;;;5.13;3.58;;;;;;;-6.50;70.87;147041.13;13070543;22;20015;-81
2024/01/08 04:26:35;;;;;;;4.50;3.67;;;;;;;-6.52;70.32;147036.00;13072195;22;20019;-81
2024/01/08 04:31:37;;;;;;;6.25;4.20;;;;;;;-6.46;70.72;147051.25;13043449;22;20117;-83
2024/01/08 04:36:41;;;;;;;4.95;3.38;;;;;;;-6.57;71.28;147023.28;13050562;22;20019;-82
2024/01/08 04:41:43;;;;;;;4.78;3.67;;;;;;;-6.67;71.66;147000.38;13043328;22;20023;-83
2024/01/08 04:46:45;;;;;;;4.80;3.28;;;;;;;-6.80;70.13;146966.03;13073207;22;20015;-82
2024/01/08 04:51:47;;;;;;;5.15;3.55;;;;;;;-6.80;70.60;146966.03;13049918;22;20015;-82
2024/01/08 04:56:48;;;;;;;8.05;4.30;;;;;;;-6.87;70.27;146949.47;13073749;22;20022;-82
2024/01/08 05:01:51;;;;;;;5.38;3.85;;;;;;;-6.78;70.37;146971.09;13072085;22;20019;-83
2024/01/08 05:06:53;;;;;;;7.90;3.67;;;;;;;-6.92;70.55;146938.00;13043461;22;20061;-83
2024/01/08 05:11:54;;;;;;;9.18;3.85;;;;;;;-6.77;70.93;146974.94;13069613;22;20346;-82
2024/01/08 05:16:56;;;;;;;8.82;3.90;;;;;;;-6.83;70.39;146959.66;13098128;22;20016;-80
2024/01/08 05:21:58;;;;;;;7.65;4.50;;;;;;;-6.91;71.14;146940.56;13089716;22;20070;-81
2024/01/08 05:27:00;;;;;;;4.43;3.80;;;;;;;-7.08;71.43;146897.34;13089167;22;20015;-81
2024/01/08 05:32:02;;;;;;;4.32;3.15;;;;;;;-7.08;70.39;146896.03;13061063;22;19999;-81
2024/01/08 05:37:04;;;;;;;6.10;3.83;;;;;;;-7.15;70.88;146879.50;13064202;22;20019;-81
2024/01/08 05:42:06;;;;;;;6.72;3.85;;;;;;;-7.08;70.63;146896.03;13096100;22;20026;-82
2024/01/08 05:47:07;;;;;;;6.18;3.67;;;;;;;-7.15;70.73;146879.50;13070808;22;20019;-85
2024/01/08 05:52:09;;;;;;;5.10;3.40;;;;;;;-7.18;71.37;146873.13;13057494;22;20094;-83
2024/01/08 05:57:11;;;;;;;4.72;3.55;;;;;;;-7.25;71.02;146855.34;13052660;22;20015;-82
2024/01/08 06:02:13;;;;;;;4.38;3.85;;;;;;;-7.17;72.01;146875.72;13077432;22;20026;-82
2024/01/08 06:07:14;;;;;;;5.22;4.03;;;;;;;-7.06;71.45;146902.41;13076455;22;20075;-82
2024/01/08 06:12:17;;;;;;;4.15;3.38;;;;;;;-7.33;71.47;146833.72;13073362;22;20015;-82
2024/01/08 06:17:18;;;;;;;5.78;3.63;;;;;;;-7.36;71.68;146827.34;13072513;22;20008;-82
2024/01/08 06:22:20;;;;;;;6.07;3.65;;;;;;;-7.39;72.34;146819.75;13074165;22;20019;-81
2024/01/08 06:27:22;;;;;;;7.72;4.10;;;;;;;-7.49;70.99;146794.28;13076387;22;20022;-81
2024/01/08 06:32:24;;;;;;;5.32;3.88;;;;;;;-7.36;70.48;146828.63;13074144;22;20070;-81
2024/01/08 06:37:26;;;;;;;4.32;3.03;;;;;;;-7.43;70.39;146810.84;13074911;22;20023;-82
2024/01/08 06:42:28;;;;;;;5.00;3.80;;;;;;;-7.40;71.70;146817.19;13051230;22;20030;-82
2024/01/08 06:47:47;;;;;;;6.55;4.47;;;;;;;-7.59;72.50;146770.13;13075170;22;20015;-81
2024/01/08 06:52:48;;;;;;;3.92;3.53;;;;;;;-7.51;73.27;146790.50;13072243;22;20043;-83
2024/01/08 06:57:52;;;;;;;5.80;3.88;;;;;;;-7.45;73.30;146804.47;13074286;22;20011;-82
2024/01/08 07:02:55;;;;;;;5.05;4.03;;;;;;;-7.73;72.51;146734.56;13047872;22;20389;-83
2024/01/08 07:07:59;;;;;;;6.18;3.85;;;;;;;-7.82;73.05;146712.94;13048615;22;20015;-83
2024/01/08 07:13:01;;;;;;;5.68;4.63;;;;;;;-7.69;73.38;146746.00;13072264;22;20050;-82
2024/01/08 07:18:04;;;;;;;6.63;3.38;;;;;;;-7.70;73.68;146743.47;13075607;22;20012;-82
2024/01/08 07:23:15;;;;;;;4.47;3.28;;;;;;;-7.88;72.13;146697.66;13074930;22;20034;-81
2024/01/08 07:28:17;;;;;;;6.07;4.63;;;;;;;-7.85;73.24;146704.03;13073468;22;20018;-82
2024/01/08 07:33:19;;;;;;;7.43;3.97;;;;;;;-7.93;72.72;146686.22;13073173;22;20516;-82
2024/01/08 07:38:22;;;;;;;7.00;4.03;;;;;;;-8.05;73.29;146655.75;13043355;22;20442;-83
2024/01/08 07:43:24;;;;;;;7.20;4.13;;;;;;;-8.09;73.88;146645.56;13043317;22;20019;-82
2024/01/08 07:48:26;;;;;;;6.60;4.70;;;;;;;-8.07;74.38;146650.63;13070471;22;20066;-83
2024/01/08 07:53:28;;;;;;;4.80;3.58;;;;;;;-8.21;73.28;146616.31;13072075;22;20019;-81
2024/01/08 07:58:30;;;;;;;5.43;4.00;;;;;;;-8.20;72.70;146617.59;13073231;22;20075;-82
2024/01/08 08:03:40;;;;;;;4.15;2.85;;;;;;;-8.16;71.25;146629.03;13050905;22;20035;-81
2024/01/08 08:08:42;;;;;;;4.30;3.33;;;;;;;-8.12;72.04;146639.19;13074081;22;20015;-82
2024/01/08 08:13:44;;;;;;;3.97;2.97;;;;;;;-8.20;71.13;146618.84;13071564;22;20023;-81
2024/01/08 08:18:45;;;;;;;6.15;4.82;;;;;;;-8.24;70.77;146607.44;13072692;22;20015;-81
2024/01/08 08:23:48;;;;;;;10.35;4.47;;;;;;;-8.32;72.45;146588.41;13073332;22;20071;-82
2024/01/08 08:28:50;;;;;;;10.50;4.57;;;;;;;-8.01;71.98;146665.91;13046183;22;20016;-78
2024/01/08 08:33:52;;;;;;;5.03;4.13;;;;;;;-7.97;71.25;146674.78;13031972;22;20333;-78
2024/01/08 08:38:56;;;;;;;5.55;4.57;;;;;;;-8.01;71.63;146664.59;13063687;22;20014;-78
2024/01/08 08:43:58;;;;;;;11.60;4.93;;;;;;;-7.96;70.22;146677.34;13061959;22;20019;-79
2024/01/08 08:49:01;;;;;;;5.97;5.15;;;;;;;-7.86;69.32;146702.75;13040905;22;20041;-80
2024/01/08 08:54:04;;;;;;;5.80;4.97;;;;;;;-7.95;68.98;146679.88;13047697;22;20022;-81
2024/01/08 08:59:06;;;;;;;5.78;4.13;;;;;;;-7.97;70.15;146676.09;13051123;22;20015;-80
2024/01/08 09:04:07;;;;;;;5.93;4.78;;;;;;;-7.79;68.89;146720.56;13074991;22;20020;-81
2024/01/08 09:09:11;;;;;;;8.77;5.28;;;;;;;-7.88;68.58;146697.66;13077272;22;20060;-81
2024/01/08 09:14:13;;;;;;;7.90;5.57;;;;;;;-7.90;70.13;146693.84;13085462;22;20011;-78
2024/01/08 09:19:15;;;;;;;7.35;5.28;;;;;;;-7.65;69.29;146754.91;13084482;22;20016;-82
2024/01/08 09:24:17;;;;;;;7.63;5.80;;;;;;;-7.86;69.69;146702.75;13086712;22;20000;-80
2024/01/08 09:29:19;;;;;;;7.57;5.40;;;;;;;-7.90;71.08;146692.59;13104550;22;20512;-79
2024/01/08 09:34:21;;;;;;;6.90;3.75;;;;;;;-7.70;69.88;146743.47;13108823;22;20019;-80
2024/01/08 09:39:22;;;;;;;7.40;5.05;;;;;;;-7.71;70.30;146740.88;13084408;22;20015;-79
2024/01/08 09:44:25;;;;;;;11.77;6.55;;;;;;;-7.55;69.63;146780.31;13080901;22;20019;-80
2024/01/08 09:49:29;;;;;;;6.35;4.70;;;;;;;-7.36;68.70;146828.63;13074984;22;20023;-79
2024/01/08 09:54:33;;;;;;;8.50;5.45;;;;;;;-7.44;70.34;146808.25;13072556;22;20023;-79
2024/01/08 09:59:35;;;;;;;9.63;5.57;;;;;;;-7.37;69.85;146826.09;13075037;22;20434;-79
2024/01/08 10:04:36;;;;;;;7.63;5.88;;;;;;;-7.22;69.40;146861.69;13074253;22;20453;-79
2024/01/08 10:09:38;;;;;;;6.45;5.22;;;;;;;-7.40;68.53;146818.44;13072675;22;20022;-79
2024/01/08 10:14:41;;;;;;;6.55;5.40;;;;;;;-7.51;68.13;146789.22;13075780;22;20067;-79
2024/01/08 10:19:42;;;;;;;10.85;6.75;;;;;;;-7.46;68.42;146801.94;13076920;22;20388;-79
2024/01/08 10:24:46;;;;;;;13.25;7.88;;;;;;;-7.47;68.27;146800.66;13074947;22;20015;-79
2024/01/08 10:29:48;;;;;;;11.82;8.15;;;;;;;-7.62;68.75;146763.75;13077048;22;20037;-80
2024/01/08 10:34:51;;;;;;;12.73;6.38;;;;;;;-7.35;67.73;146829.88;13079671;22;20015;-80
2024/01/08 10:39:55;;;;;;;6.93;4.93;;;;;;;-7.52;67.95;146787.97;13045704;22;20016;-79
2024/01/08 10:44:57;;;;;;;7.88;5.38;;;;;;;-7.67;69.09;146751.06;13065184;22;20446;-80
2024/01/08 10:50:02;;;;;;;12.05;6.13;;;;;;;-7.49;69.05;146795.56;13064947;22;20023;-79
2024/01/08 10:55:08;;;;;;;7.57;4.80;;;;;;;-7.30;69.80;146841.31;13073417;22;20441;-78
2024/01/08 11:00:12;;;;;;;8.48;5.70;;;;;;;-7.27;68.90;146850.25;13070200;22;20019;-79
2024/01/08 11:05:16;;;;;;;10.35;6.68;;;;;;;-6.95;68.56;146929.09;13043364;22;20023;-79
2024/01/08 11:10:22;;;;;;;7.97;5.43;;;;;;;-7.00;68.98;146916.38;13071591;22;20045;-78
2024/01/08 11:15:28;;;;;;;8.80;6.03;;;;;;;-7.07;68.30;146899.88;13041415;22;20023;-80
2024/01/08 11:20:33;;;;;;;10.40;5.80;;;;;;;-6.97;67.56;146925.31;13072045;22;20019;-79
2024/01/08 11:25:35;;;;;;;9.48;7.20;;;;;;;-5.80;63.65;147216.72;13065716;22;20546;-79
2024/01/08 11:30:37;;;;;;;8.15;6.20;;;;;;;-4.71;58.54;147488.16;13070660;22;20019;-79
2024/01/08 11:35:46;;;;;;;8.00;5.45;;;;;;;-3.43;54.86;147808.34;13065603;22;20023;-79
2024/01/08 11:40:47;;;;;;;9.85;6.03;;;;;;;-3.49;53.23;147794.31;13012371;22;20019;-78
2024/01/08 11:45:49;;;;;;;11.23;6.40;;;;;;;-3.55;53.55;147778.97;13030237;22;20023;-78
2024/01/08 11:50:51;;;;;;;8.40;6.15;;;;;;;-3.58;52.22;147771.34;13056545;22;20076;-79
2024/01/08 11:55:53;;;;;;;7.45;5.95;;;;;;;-2.70;51.64;147992.22;13057193;22;20046;-79
2024/01/08 12:00:55;;;;;;;9.10;5.85;;;;;;;-3.42;52.27;147812.16;13066356;22;20022;-80
2024/01/08 12:06:04;;;;;;;9.07;6.05;;;;;;;-4.09;52.44;147643.72;13061385;22;20011;-80
2024/01/08 12:11:08;;;;;;;9.25;6.28;;;;;;;-4.56;56.80;147526.38;13064484;22;20098;-78
2024/01/08 12:16:10;;;;;;;8.88;7.00;;;;;;;-4.67;55.08;147499.63;13038406;22;20465;-78
2024/01/08 12:21:11;;;;;;;10.15;6.63;;;;;;;-4.02;53.08;147660.34;13066138;22;20101;-78
2024/01/08 12:26:18;;;;;;;9.50;6.78;;;;;;;-4.47;53.47;147549.38;13067903;22;20031;-78
2024/01/08 12:31:22;;;;;;;10.52;6.20;;;;;;;-4.69;53.63;147494.56;13065958;22;20039;-78
2024/01/08 12:36:24;;;;;;;9.85;6.68;;;;;;;-5.27;56.40;147349.22;13066806;22;20495;-78
2024/01/08 12:41:26;;;;;;;8.55;6.55;;;;;;;-5.85;57.00;147204.00;13057732;22;20022;-78
2024/01/08 12:46:28;;;;;;;10.15;7.70;;;;;;;-6.08;58.36;147146.75;13060558;22;20011;-82
2024/01/08 12:51:29;;;;;;;11.40;6.97;;;;;;;-6.15;59.12;147128.97;13068101;22;20512;-79
2024/01/08 12:56:32;;;;;;;10.65;5.93;;;;;;;-6.16;59.42;147127.66;13065846;22;20015;-81
2024/01/08 13:01:35;;;;;;;13.25;7.28;;;;;;;-6.00;58.54;147165.88;13080824;22;20026;-80
2024/01/08 13:06:37;;;;;;;13.50;7.70;;;;;;;-6.06;59.74;147150.56;13078799;22;20012;-80
2024/01/08 13:11:40;;;;;;;9.00;6.45;;;;;;;-5.97;58.17;147173.53;13074680;22;20191;-79
2024/01/08 13:16:43;;;;;;;12.27;7.75;;;;;;;-6.01;58.73;147163.34;13072870;22;20011;-79
2024/01/08 13:21:45;;;;;;;10.20;7.18;;;;;;;-6.02;57.83;147160.75;13071457;22;20019;-79
2024/01/08 13:26:47;;;;;;;11.80;7.82;;;;;;;-6.03;57.28;147158.22;13071858;22;20011;-79
2024/01/08 13:31:49;;;;;;;11.55;7.88;;;;;;;-6.16;56.87;147127.66;13074399;22;20075;-79
2024/01/08 13:36:51;;;;;;;10.77;6.55;;;;;;;-6.15;56.29;147128.97;13074898;22;20018;-80
2024/01/08 13:41:53;;;;;;;10.30;6.78;;;;;;;-6.30;56.31;147092.00;13070326;22;20019;-81
2024/01/08 13:46:55;;;;;;;9.05;6.57;;;;;;;-6.32;56.06;147086.94;13024566;22;20016;-80
2024/01/08 13:51:57;;;;;;;12.93;6.72;;;;;;;-6.14;56.66;147132.75;13080394;22;20094;-81
2024/01/08 13:57:00;;;;;;;7.53;6.15;;;;;;;-6.29;56.26;147094.53;13086055;22;20075;-81
2024/01/08 14:02:04;;;;;;;10.98;6.93;;;;;;;-6.37;58.56;147074.22;13075203;22;20327;-80
2024/01/08 14:07:06;;;;;;;9.40;6.97;;;;;;;-6.19;58.03;147118.78;13053011;22;20015;-79
2024/01/08 14:12:08;;;;;;;14.25;6.80;;;;;;;-6.29;58.18;147093.28;13079169;22;20026;-79
2024/01/08 14:17:10;;;;;;;11.43;6.88;;;;;;;-6.26;58.02;147100.94;13079973;22;20026;-80
2024/01/08 14:22:11;;;;;;;8.38;6.88;;;;;;;-6.35;58.80;147079.28;13082463;22;20116;-80
2024/01/08 14:27:13;;;;;;;9.93;6.68;;;;;;;-6.44;58.74;147057.66;13077688;22;20011;-78
2024/01/08 14:32:15;;;;;;;12.68;7.60;;;;;;;-6.47;60.07;147050.00;13075330;22;20026;-78
2024/01/08 14:37:18;;;;;;;13.38;7.57;;;;;;;-6.57;59.19;147024.56;13070625;22;20027;-80
2024/01/08 14:42:20;;;;;;;11.13;6.95;;;;;;;-6.72;60.17;146987.66;13067492;22;20050;-80
2024/01/08 14:47:22;;;;;;;18.23;10.10;;;;;;;-6.81;61.03;146964.75;13048163;22;20064;-80
2024/01/08 14:52:24;;;;;;;11.90;7.30;;;;;;;-6.59;60.18;147018.22;13075844;22;20015;-79
2024/01/08 14:57:26;;;;;;;12.98;8.38;;;;;;;-6.62;60.07;147013.09;13074065;22;20363;-80
2024/01/08 15:02:28;;;;;;;18.48;10.13;;;;;;;-6.82;61.31;146960.91;13068714;22;20146;-79
2024/01/08 15:07:29;;;;;;;8.85;6.25;;;;;;;-6.86;61.15;146952.06;13075967;22;20018;-80
2024/01/08 15:12:32;;;;;;;8.63;6.25;;;;;;;-6.97;61.99;146925.31;13071070;22;20023;-78
2024/01/08 15:17:33;;;;;;;9.63;6.55;;;;;;;-7.03;62.80;146910.06;13069388;22;20061;-77
2024/01/08 15:22:35;;;;;;;9.50;6.28;;;;;;;-6.94;62.93;146931.69;13066508;22;20141;-78
2024/01/08 15:27:37;;;;;;;9.98;6.35;;;;;;;-6.90;62.25;146943.13;13068797;22;20011;-79
2024/01/08 15:32:42;;;;;;;9.32;7.53;;;;;;;-6.87;63.55;146949.47;13069010;22;20023;-78
2024/01/08 15:37:46;;;;;;;7.63;6.03;;;;;;;-6.96;64.23;146926.56;13060295;22;20022;-78
2024/01/08 15:42:47;;;;;;;8.82;5.68;;;;;;;-6.96;63.71;146926.56;13030378;22;20435;-78
2024/01/08 15:47:49;;;;;;;8.48;6.32;;;;;;;-7.04;64.34;146906.22;13070897;22;20072;-79
2024/01/08 15:52:51;;;;;;;9.23;6.07;;;;;;;-7.27;65.24;146848.97;13081589;22;20023;-77
2024/01/08 15:57:53;;;;;;;14.55;7.55;;;;;;;-7.19;65.07;146870.59;13043400;22;20011;-79
2024/01/08 16:02:54;;;;;;;9.23;7.20;;;;;;;-7.29;65.68;146845.19;13036141;22;20015;-78
2024/01/08 16:07:56;;;;;;;10.27;6.43;;;;;;;-7.37;65.71;146824.81;13071493;22;20018;-78
2024/01/08 16:12:58;;;;;;;9.65;7.18;;;;;;;-7.27;65.37;146850.25;13071268;22;20076;-80
2024/01/08 16:18:00;;;;;;;9.30;5.93;;;;;;;-7.35;66.37;146829.88;13074118;22;20011;-79
2024/01/08 16:23:03;;;;;;;14.93;7.25;;;;;;;-7.24;65.61;146857.88;13060909;22;20019;-78
2024/01/08 16:28:05;;;;;;;7.90;5.80;;;;;;;-7.28;66.53;146846.44;13066888;22;20047;-81
2024/01/08 16:33:06;;;;;;;10.75;6.95;;;;;;;-7.43;67.08;146810.84;13068442;22;20080;-79
2024/01/08 16:38:08;;;;;;;15.35;7.18;;;;;;;-7.34;67.24;146832.47;13063044;22;20086;-77
2024/01/08 16:43:10;;;;;;;10.45;6.05;;;;;;;-7.16;65.99;146878.25;13058219;22;20094;-79
2024/01/08 16:48:12;;;;;;;10.60;6.20;;;;;;;-7.12;65.47;146887.16;13060614;22;20015;-78
2024/01/08 16:53:14;;;;;;;13.23;6.68;;;;;;;-7.44;66.91;146807.00;13034488;22;20023;-78
2024/01/08 16:58:15;;;;;;;12.43;7.15;;;;;;;-7.42;67.10;146812.09;13058954;22;20091;-78
2024/01/08 17:03:17;;;;;;;8.88;6.88;;;;;;;-7.76;68.42;146728.16;13034002;22;20029;-78
2024/01/08 17:08:19;;;;;;;10.35;6.38;;;;;;;-7.54;67.48;146781.59;13062927;22;20018;-78
2024/01/08 17:13:21;;;;;;;9.30;7.43;;;;;;;-7.50;67.91;146791.75;13063792;22;20038;-78
2024/01/08 17:18:23;;;;;;;12.00;6.63;;;;;;;-7.52;67.37;146786.69;13058136;22;20022;-78
2024/01/08 17:23:25;;;;;;;10.93;6.55;;;;;;;-7.64;68.35;146757.44;13054986;22;20019;-77
2024/01/08 17:28:26;;;;;;;9.38;6.88;;;;;;;-7.74;69.27;146733.28;13061489;22;20053;-78
2024/01/08 17:33:28;;;;;;;11.60;7.28;;;;;;;-7.82;69.71;146712.94;13068445;22;20015;-79
2024/01/08 17:38:32;;;;;;;10.70;6.97;;;;;;;-7.29;68.19;146843.91;13069985;22;20042;-79
2024/01/08 17:43:34;;;;;;;9.95;7.55;;;;;;;-7.60;70.01;146767.59;13066350;22;20015;-80
2024/01/08 17:48:36;;;;;;;8.75;6.07;;;;;;;-7.78;70.00;146721.84;13072013;22;20019;-79
2024/01/08 17:53:38;;;;;;;8.88;6.15;;;;;;;-7.72;69.51;146738.34;13041739;22;20038;-78
2024/01/08 17:58:40;;;;;;;9.73;6.18;;;;;;;-7.76;69.75;146728.16;13032673;22;20015;-79
2024/01/08 18:03:42;;;;;;;11.65;6.97;;;;;;;-7.90;71.06;146692.59;13072188;22;20409;-79
2024/01/08 18:08:44;;;;;;;11.52;6.97;;;;;;;-7.71;70.23;146740.88;13071402;22;20012;-79
2024/01/08 18:13:47;;;;;;;8.93;6.57;;;;;;;-7.68;70.16;146748.53;13067712;22;20461;-79
2024/01/08 18:18:49;;;;;;;12.90;8.85;;;;;;;-7.79;70.52;146720.56;13069581;22;20016;-79
2024/01/08 18:23:51;;;;;;;10.32;7.78;;;;;;;-7.77;71.43;146724.38;13043548;22;20023;-79
2024/01/08 18:28:53;;;;;;;12.60;6.90;;;;;;;-8.05;73.25;146654.47;13066590;22;20030;-79
2024/01/08 18:33:55;;;;;;;11.35;7.53;;;;;;;-7.98;72.91;146672.25;13043648;22;20015;-78
2024/01/08 18:38:57;;;;;;;13.10;7.82;;;;;;;-7.81;72.17;146715.47;13071393;22;20015;-79
2024/01/08 18:43:59;;;;;;;12.38;7.68;;;;;;;-8.00;71.70;146667.19;13070496;22;20026;-79
2024/01/08 18:49:01;;;;;;;11.00;6.70;;;;;;;-7.80;71.86;146718.00;13062093;22;20011;-78
2024/01/08 18:54:04;;;;;;;18.38;7.97;;;;;;;-8.00;72.17;146668.44;13042432;22;20023;-80
2024/01/08 18:59:06;;;;;;;12.05;6.95;;;;;;;-8.08;72.74;146648.09;13047923;22;20015;-78
2024/01/08 19:04:08;;;;;;;10.88;7.28;;;;;;;-8.02;72.29;146663.34;13070576;22;20011;-79
2024/01/08 19:09:10;;;;;;;10.32;6.70;;;;;;;-8.08;72.47;146648.09;13071645;22;20015;-79
2024/01/08 19:14:13;;;;;;;17.83;7.40;;;;;;;-8.12;72.57;146637.94;13074503;22;20061;-78
2024/01/08 19:19:15;;;;;;;10.25;6.65;;;;;;;-7.97;72.80;146674.78;13075706;22;20063;-79
2024/01/08 19:24:17;;;;;;;9.02;7.10;;;;;;;-7.91;72.02;146690.06;13069316;22;20073;-78
2024/01/08 19:29:19;;;;;;;15.93;7.13;;;;;;;-7.85;71.72;146704.03;13074995;22;20015;-78
2024/01/08 19:34:20;;;;;;;13.40;7.85;;;;;;;-8.26;73.90;146602.38;13077201;22;20048;-78
2024/01/08 19:39:23;;;;;;;12.20;7.43;;;;;;;-8.39;74.78;146571.91;13066206;22;20025;-78
2024/01/08 19:44:25;;;;;;;10.10;7.20;;;;;;;-8.39;74.79;146571.91;13065246;22;20019;-79
2024/01/08 19:49:28;;;;;;;8.23;7.03;;;;;;;-7.93;71.92;146686.22;13067966;22;20043;-78
2024/01/08 19:54:33;;;;;;;8.98;6.03;;;;;;;-8.32;72.36;146588.41;13067697;22;20022;-79
2024/01/08 19:59:34;;;;;;;7.60;6.50;;;;;;;-8.11;71.84;146640.47;13073597;22;20515;-81
2024/01/08 20:04:38;;;;;;;7.03;5.45;;;;;;;-8.07;71.20;146650.63;13083664;22;20015;-80
2024/01/08 20:09:41;;;;;;;12.00;6.03;;;;;;;-8.17;71.79;146625.22;13082882;22;20042;-81
2024/01/08 20:14:42;;;;;;;9.35;5.72;;;;;;;-8.20;71.59;146618.84;13077769;22;20019;-79
2024/01/08 20:19:47;;;;;;;9.25;5.50;;;;;;;-8.21;71.55;146616.31;13076824;22;20345;-79
2024/01/08 20:24:49;;;;;;;8.02;5.25;;;;;;;-8.41;71.87;146565.53;13072345;22;20015;-79
2024/01/08 20:29:51;;;;;;;9.27;6.45;;;;;;;-8.47;71.73;146551.56;13046343;22;20019;-79
2024/01/08 20:34:53;;;;;;;9.48;5.65;;;;;;;-8.45;71.83;146556.69;13043353;22;20023;-79
2024/01/08 20:39:55;;;;;;;7.97;6.15;;;;;;;-8.55;72.22;146531.25;13074216;22;20015;-79
2024/01/08 20:44:56;;;;;;;14.02;6.07;;;;;;;-8.35;70.98;146579.50;13042815;22;20019;-80
2024/01/08 20:49:58;;;;;;;11.25;5.82;;;;;;;-8.52;71.89;146537.59;13073311;22;20018;-80
2024/01/08 20:55:00;;;;;;;8.73;6.30;;;;;;;-8.65;72.51;146507.13;13078007;22;20022;-80
2024/01/08 21:00:02;;;;;;;8.45;6.28;;;;;;;-8.58;71.09;146523.66;13052198;22;20395;-79
2024/01/08 21:05:04;;;;;;;7.93;5.57;;;;;;;-8.53;71.72;146536.34;13084985;22;20034;-79
2024/01/08 21:10:06;;;;;;;8.40;5.95;;;;;;;-8.45;71.20;146556.69;13079745;22;20468;-80
2024/01/08 21:15:08;;;;;;;10.88;6.40;;;;;;;-8.32;69.46;146587.09;13047145;22;20072;-79
2024/01/08 21:20:10;;;;;;;8.75;5.82;;;;;;;-8.38;69.66;146573.16;13070215;22;20031;-79
2024/01/08 21:25:13;;;;;;;8.52;6.25;;;;;;;-8.56;69.30;146527.44;13042002;22;20023;-79
2024/01/08 21:30:14;;;;;;;12.05;5.72;;;;;;;-8.51;68.63;146541.41;13073236;22;20011;-80
2024/01/08 21:35:16;;;;;;;7.75;5.72;;;;;;;-8.59;68.72;146519.81;13038921;22;20023;-79
2024/01/08 21:40:18;;;;;;;11.18;6.43;;;;;;;-8.48;68.10;146549.03;13068146;22;20016;-78
2024/01/08 21:45:20;;;;;;;6.55;4.80;;;;;;;-8.34;67.70;146582.03;13061705;22;20015;-80
2024/01/08 21:50:21;;;;;;;12.15;6.53;;;;;;;-8.64;67.76;146508.38;13042347;22;20063;-79
2024/01/08 21:55:23;;;;;;;9.18;5.70;;;;;;;-8.57;68.45;146526.19;13075562;22;20023;-79
2024/01/08 22:00:25;;;;;;;11.77;6.00;;;;;;;-8.65;68.38;146507.13;13080398;22;20056;-80
2024/01/08 22:05:27;;;;;;;6.60;4.75;;;;;;;-8.80;68.65;146469.03;13074681;22;20436;-79
2024/01/08 22:10:28;;;;;;;11.13;6.40;;;;;;;-8.80;68.61;146467.75;13072121;22;20067;-80
2024/01/08 22:15:30;;;;;;;10.05;6.85;;;;;;;-8.97;70.12;146425.84;13044934;22;20027;-80
2024/01/08 22:20:32;;;;;;;12.13;7.00;;;;;;;-8.88;70.40;146447.44;13076055;22;20015;-81
2024/01/08 22:25:36;;;;;;;8.35;6.47;;;;;;;-9.03;70.67;146411.88;13049065;22;20050;-81
2024/01/08 22:30:38;;;;;;;9.48;6.85;;;;;;;-8.89;69.96;146446.16;13077906;22;20039;-80
2024/01/08 22:35:40;;;;;;;12.07;7.50;;;;;;;-8.76;68.95;146479.19;13049283;22;20023;-80
2024/01/08 22:40:44;;;;;;;10.52;6.22;;;;;;;-8.90;69.58;146443.59;13074975;22;20072;-80
2024/01/08 22:45:46;;;;;;;10.40;6.82;;;;;;;-9.03;69.83;146411.88;13074998;22;20019;-80
2024/01/08 22:50:48;;;;;;;10.25;7.35;;;;;;;-9.12;70.62;146389.00;13075043;22;20068;-80
2024/01/08 22:55:49;;;;;;;12.70;7.20;;;;;;;-9.11;70.87;146391.56;13075546;22;20496;-79
2024/01/08 23:00:51;;;;;;;10.40;7.65;;;;;;;-9.12;71.48;146387.72;13076497;22;20042;-80
2024/01/08 23:05:53;;;;;;;13.30;6.07;;;;;;;-9.08;71.08;146399.16;13095587;22;20023;-80